sensor_id;sensor_type;location;lat;lon;timestamp;P1;durP1;ratioP1;P2;durP2;ratioP2
15281;SDS011;7742;44.320;19.820;2022-08-18T00:02:37;16.60;;;15.70;;
15281;SDS011;7742;44.320;19.820;2022-08-18T00:05:08;16.90;;;15.97;;
15281;SDS011;7742;44.320;19.820;2022-08-18T00:07:44;16.60;;;15.70;;
15281;SDS011;7742;44.320;19.820;2022-08-18T00:10:30;17.20;;;16.30;;
15281;SDS011;7742;44.320;19.820;2022-08-18T00:13:09;17.87;;;16.83;;
15281;SDS011;7742;44.320;19.820;2022-08-18T00:15:52;16.90;;;15.83;;
15281;SDS011;7742;44.320;19.820;2022-08-18T00:18:29;16.80;;;15.80;;
15281;SDS011;7742;44.320;19.820;2022-08-18T00:21:10;16.50;;;15.60;;
15281;SDS011;7742;44.320;19.820;2022-08-18T00:23:48;16.80;;;16.00;;
15281;SDS011;7742;44.320;19.820;2022-08-18T00:26:35;17.67;;;16.60;;
15281;SDS011;7742;44.320;19.820;2022-08-18T00:29:43;17.30;;;16.30;;
15281;SDS011;7742;44.320;19.820;2022-08-18T00:32:21;17.33;;;16.33;;
15281;SDS011;7742;44.320;19.820;2022-08-18T00:35:05;17.17;;;16.27;;
15281;SDS011;7742;44.320;19.820;2022-08-18T00:37:44;17.80;;;16.80;;
15281;SDS011;7742;44.320;19.820;2022-08-18T00:40:27;16.90;;;16.00;;
15281;SDS011;7742;44.320;19.820;2022-08-18T00:43:11;16.80;;;15.90;;
15281;SDS011;7742;44.320;19.820;2022-08-18T00:45:42;16.83;;;15.93;;
15281;SDS011;7742;44.320;19.820;2022-08-18T00:48:20;17.30;;;16.30;;
15281;SDS011;7742;44.320;19.820;2022-08-18T00:51:01;17.83;;;16.57;;
15281;SDS011;7742;44.320;19.820;2022-08-18T00:53:43;17.07;;;16.17;;
15281;SDS011;7742;44.320;19.820;2022-08-18T00:56:27;16.47;;;15.57;;
15281;SDS011;7742;44.320;19.820;2022-08-18T00:59:11;15.40;;;14.60;;
15281;SDS011;7742;44.320;19.820;2022-08-18T01:01:59;17.37;;;16.17;;
15281;SDS011;7742;44.320;19.820;2022-08-18T01:04:41;16.20;;;15.30;;
15281;SDS011;7742;44.320;19.820;2022-08-18T01:07:19;15.60;;;14.83;;
15281;SDS011;7742;44.320;19.820;2022-08-18T01:09:54;16.10;;;15.20;;
15281;SDS011;7742;44.320;19.820;2022-08-18T01:12:37;15.77;;;14.97;;
15281;SDS011;7742;44.320;19.820;2022-08-18T01:15:24;15.77;;;14.87;;
15281;SDS011;7742;44.320;19.820;2022-08-18T01:18:00;15.33;;;14.53;;
15281;SDS011;7742;44.320;19.820;2022-08-18T01:20:58;15.90;;;15.00;;
15281;SDS011;7742;44.320;19.820;2022-08-18T01:23:49;15.17;;;14.37;;
15281;SDS011;7742;44.320;19.820;2022-08-18T01:26:18;14.70;;;14.00;;
15281;SDS011;7742;44.320;19.820;2022-08-18T01:28:53;14.73;;;13.93;;
15281;SDS011;7742;44.320;19.820;2022-08-18T01:31:45;13.90;;;13.30;;
15281;SDS011;7742;44.320;19.820;2022-08-18T01:34:19;15.53;;;14.73;;
15281;SDS011;7742;44.320;19.820;2022-08-18T01:36:51;14.50;;;13.80;;
15281;SDS011;7742;44.320;19.820;2022-08-18T01:39:32;15.37;;;14.57;;
15281;SDS011;7742;44.320;19.820;2022-08-18T01:42:04;15.63;;;14.83;;
15281;SDS011;7742;44.320;19.820;2022-08-18T01:44:39;14.70;;;13.93;;
15281;SDS011;7742;44.320;19.820;2022-08-18T01:47:08;14.60;;;13.90;;
15281;SDS011;7742;44.320;19.820;2022-08-18T01:49:36;14.50;;;13.77;;
15281;SDS011;7742;44.320;19.820;2022-08-18T01:52:09;14.67;;;13.97;;
15281;SDS011;7742;44.320;19.820;2022-08-18T01:54:38;14.47;;;13.67;;
15281;SDS011;7742;44.320;19.820;2022-08-18T01:57:07;14.73;;;14.03;;
15281;SDS011;7742;44.320;19.820;2022-08-18T01:59:39;14.37;;;13.67;;
15281;SDS011;7742;44.320;19.820;2022-08-18T02:02:07;14.70;;;13.93;;
15281;SDS011;7742;44.320;19.820;2022-08-18T02:04:34;13.93;;;13.33;;
15281;SDS011;7742;44.320;19.820;2022-08-18T02:07:03;14.70;;;14.00;;
15281;SDS011;7742;44.320;19.820;2022-08-18T02:09:32;14.37;;;13.67;;
15281;SDS011;7742;44.320;19.820;2022-08-18T02:12:02;14.90;;;14.20;;
15281;SDS011;7742;44.320;19.820;2022-08-18T02:14:31;14.63;;;13.87;;
15281;SDS011;7742;44.320;19.820;2022-08-18T02:16:59;14.30;;;13.60;;
15281;SDS011;7742;44.320;19.820;2022-08-18T02:19:27;14.90;;;14.10;;
15281;SDS011;7742;44.320;19.820;2022-08-18T02:21:55;14.37;;;13.57;;
15281;SDS011;7742;44.320;19.820;2022-08-18T02:24:25;14.50;;;13.80;;
15281;SDS011;7742;44.320;19.820;2022-08-18T02:26:59;14.30;;;13.57;;
15281;SDS011;7742;44.320;19.820;2022-08-18T02:29:28;14.70;;;13.90;;
15281;SDS011;7742;44.320;19.820;2022-08-18T02:31:56;14.40;;;13.60;;
15281;SDS011;7742;44.320;19.820;2022-08-18T02:34:45;14.37;;;13.67;;
15281;SDS011;7742;44.320;19.820;2022-08-18T02:37:43;14.27;;;13.57;;
15281;SDS011;7742;44.320;19.820;2022-08-18T02:44:10;14.47;;;13.77;;
15281;SDS011;7742;44.320;19.820;2022-08-18T02:46:39;14.70;;;14.00;;
15281;SDS011;7742;44.320;19.820;2022-08-18T02:49:06;14.57;;;13.77;;
15281;SDS011;7742;44.320;19.820;2022-08-18T02:51:34;15.03;;;14.03;;
15281;SDS011;7742;44.320;19.820;2022-08-18T02:54:01;14.33;;;13.53;;
15281;SDS011;7742;44.320;19.820;2022-08-18T02:56:39;14.10;;;13.43;;
15281;SDS011;7742;44.320;19.820;2022-08-18T02:59:14;14.43;;;13.63;;
15281;SDS011;7742;44.320;19.820;2022-08-18T03:01:51;14.57;;;13.67;;
15281;SDS011;7742;44.320;19.820;2022-08-18T03:04:20;14.60;;;13.90;;
15281;SDS011;7742;44.320;19.820;2022-08-18T03:06:57;14.70;;;13.93;;
15281;SDS011;7742;44.320;19.820;2022-08-18T03:09:30;14.57;;;13.77;;
15281;SDS011;7742;44.320;19.820;2022-08-18T03:11:58;14.80;;;14.00;;
15281;SDS011;7742;44.320;19.820;2022-08-18T03:14:30;14.80;;;13.90;;
15281;SDS011;7742;44.320;19.820;2022-08-18T03:17:04;15.50;;;14.60;;
15281;SDS011;7742;44.320;19.820;2022-08-18T03:19:33;14.47;;;13.77;;
15281;SDS011;7742;44.320;19.820;2022-08-18T03:25:20;14.00;;;13.30;;
15281;SDS011;7742;44.320;19.820;2022-08-18T03:27:55;14.77;;;13.87;;
15281;SDS011;7742;44.320;19.820;2022-08-18T03:30:23;15.07;;;14.20;;
15281;SDS011;7742;44.320;19.820;2022-08-18T03:32:59;14.73;;;14.00;;
15281;SDS011;7742;44.320;19.820;2022-08-18T03:39:02;14.63;;;13.93;;
15281;SDS011;7742;44.320;19.820;2022-08-18T03:41:31;14.30;;;13.60;;
15281;SDS011;7742;44.320;19.820;2022-08-18T03:44:00;15.30;;;14.50;;
15281;SDS011;7742;44.320;19.820;2022-08-18T03:46:30;14.33;;;13.53;;
15281;SDS011;7742;44.320;19.820;2022-08-18T03:48:59;14.23;;;13.53;;
15281;SDS011;7742;44.320;19.820;2022-08-18T03:51:29;14.57;;;13.77;;
15281;SDS011;7742;44.320;19.820;2022-08-18T03:53:58;13.47;;;12.77;;
15281;SDS011;7742;44.320;19.820;2022-08-18T03:56:28;14.37;;;13.63;;
15281;SDS011;7742;44.320;19.820;2022-08-18T03:58:59;14.77;;;13.77;;
15281;SDS011;7742;44.320;19.820;2022-08-18T04:01:30;14.57;;;13.87;;
15281;SDS011;7742;44.320;19.820;2022-08-18T04:04:01;14.37;;;13.67;;
15281;SDS011;7742;44.320;19.820;2022-08-18T04:06:30;14.10;;;13.30;;
15281;SDS011;7742;44.320;19.820;2022-08-18T04:08:59;14.67;;;13.83;;
15281;SDS011;7742;44.320;19.820;2022-08-18T04:11:30;14.57;;;13.93;;
15281;SDS011;7742;44.320;19.820;2022-08-18T04:13:57;14.57;;;13.87;;
15281;SDS011;7742;44.320;19.820;2022-08-18T04:16:25;15.13;;;14.13;;
15281;SDS011;7742;44.320;19.820;2022-08-18T04:18:56;13.53;;;12.93;;
15281;SDS011;7742;44.320;19.820;2022-08-18T04:21:29;14.20;;;13.40;;
15281;SDS011;7742;44.320;19.820;2022-08-18T04:23:57;13.17;;;12.53;;
15281;SDS011;7742;44.320;19.820;2022-08-18T04:26:29;13.80;;;12.90;;
15281;SDS011;7742;44.320;19.820;2022-08-18T04:28:57;13.57;;;12.97;;
15281;SDS011;7742;44.320;19.820;2022-08-18T04:31:27;13.30;;;12.70;;
15281;SDS011;7742;44.320;19.820;2022-08-18T04:33:55;13.17;;;12.57;;
15281;SDS011;7742;44.320;19.820;2022-08-18T04:36:22;13.80;;;13.10;;
15281;SDS011;7742;44.320;19.820;2022-08-18T04:38:51;13.90;;;13.10;;
15281;SDS011;7742;44.320;19.820;2022-08-18T04:41:19;14.10;;;13.40;;
15281;SDS011;7742;44.320;19.820;2022-08-18T04:43:51;14.13;;;13.33;;
15281;SDS011;7742;44.320;19.820;2022-08-18T04:46:19;13.87;;;13.20;;
15281;SDS011;7742;44.320;19.820;2022-08-18T04:48:47;14.30;;;13.70;;
15281;SDS011;7742;44.320;19.820;2022-08-18T04:51:16;14.20;;;13.50;;
15281;SDS011;7742;44.320;19.820;2022-08-18T04:53:44;14.63;;;13.80;;
15281;SDS011;7742;44.320;19.820;2022-08-18T04:56:17;14.80;;;14.02;;
15281;SDS011;7742;44.320;19.820;2022-08-18T04:58:47;14.30;;;13.55;;
15281;SDS011;7742;44.320;19.820;2022-08-18T05:01:16;13.82;;;13.02;;
15281;SDS011;7742;44.320;19.820;2022-08-18T05:03:46;14.40;;;13.50;;
15281;SDS011;7742;44.320;19.820;2022-08-18T05:06:14;14.00;;;13.10;;
15281;SDS011;7742;44.320;19.820;2022-08-18T05:08:42;13.93;;;13.30;;
15281;SDS011;7742;44.320;19.820;2022-08-18T05:11:09;14.13;;;13.32;;
15281;SDS011;7742;44.320;19.820;2022-08-18T05:13:38;14.30;;;13.60;;
15281;SDS011;7742;44.320;19.820;2022-08-18T05:16:05;14.85;;;14.00;;
15281;SDS011;7742;44.320;19.820;2022-08-18T05:18:33;14.40;;;13.70;;
15281;SDS011;7742;44.320;19.820;2022-08-18T05:21:05;14.68;;;13.98;;
15281;SDS011;7742;44.320;19.820;2022-08-18T05:23:35;14.95;;;13.82;;
15281;SDS011;7742;44.320;19.820;2022-08-18T05:26:02;14.38;;;13.57;;
15281;SDS011;7742;44.320;19.820;2022-08-18T05:28:30;14.00;;;13.30;;
15281;SDS011;7742;44.320;19.820;2022-08-18T05:31:06;14.25;;;13.50;;
15281;SDS011;7742;44.320;19.820;2022-08-18T05:33:35;14.30;;;13.70;;
15281;SDS011;7742;44.320;19.820;2022-08-18T05:36:04;15.20;;;14.35;;
15281;SDS011;7742;44.320;19.820;2022-08-18T05:38:38;15.02;;;14.23;;
15281;SDS011;7742;44.320;19.820;2022-08-18T05:41:09;14.48;;;13.77;;
15281;SDS011;7742;44.320;19.820;2022-08-18T05:43:38;14.43;;;13.75;;
15281;SDS011;7742;44.320;19.820;2022-08-18T05:46:08;14.90;;;14.10;;
15281;SDS011;7742;44.320;19.820;2022-08-18T05:48:42;15.32;;;14.50;;
15281;SDS011;7742;44.320;19.820;2022-08-18T05:51:16;15.15;;;14.43;;
15281;SDS011;7742;44.320;19.820;2022-08-18T05:53:45;14.95;;;14.07;;
15281;SDS011;7742;44.320;19.820;2022-08-18T05:56:31;14.77;;;14.07;;
15281;SDS011;7742;44.320;19.820;2022-08-18T05:59:17;15.27;;;14.40;;
15281;SDS011;7742;44.320;19.820;2022-08-18T06:01:52;15.75;;;14.82;;
15281;SDS011;7742;44.320;19.820;2022-08-18T06:04:48;15.15;;;14.45;;
15281;SDS011;7742;44.320;19.820;2022-08-18T06:12:21;15.40;;;14.50;;
15281;SDS011;7742;44.320;19.820;2022-08-18T06:14:13;15.15;;;14.35;;
15281;SDS011;7742;44.320;19.820;2022-08-18T06:17:00;15.75;;;14.95;;
15281;SDS011;7742;44.320;19.820;2022-08-18T06:19:47;15.07;;;14.27;;
15281;SDS011;7742;44.320;19.820;2022-08-18T11:15:25;16.40;;;15.60;;
15281;SDS011;7742;44.320;19.820;2022-08-18T11:18:47;16.38;;;15.43;;
15281;SDS011;7742;44.320;19.820;2022-08-18T11:25:17;14.57;;;13.77;;
15281;SDS011;7742;44.320;19.820;2022-08-18T11:27:54;13.20;;;12.50;;
15281;SDS011;7742;44.320;19.820;2022-08-18T11:34:29;14.02;;;13.30;;
15281;SDS011;7742;44.320;19.820;2022-08-18T11:37:22;14.13;;;13.27;;
15281;SDS011;7742;44.320;19.820;2022-08-18T11:40:30;14.05;;;13.38;;
15281;SDS011;7742;44.320;19.820;2022-08-18T11:43:17;13.43;;;12.73;;
15281;SDS011;7742;44.320;19.820;2022-08-18T11:52:29;13.77;;;12.98;;
15281;SDS011;7742;44.320;19.820;2022-08-18T11:55:27;13.70;;;12.90;;
15281;SDS011;7742;44.320;19.820;2022-08-18T12:01:51;13.40;;;12.70;;
15281;SDS011;7742;44.320;19.820;2022-08-18T12:04:59;12.60;;;11.93;;
15281;SDS011;7742;44.320;19.820;2022-08-18T12:07:50;14.02;;;13.30;;
15281;SDS011;7742;44.320;19.820;2022-08-18T12:10:59;14.20;;;13.40;;
15281;SDS011;7742;44.320;19.820;2022-08-18T12:13:57;13.27;;;12.68;;
15281;SDS011;7742;44.320;19.820;2022-08-18T12:50:09;14.10;;;13.23;;
15281;SDS011;7742;44.320;19.820;2022-08-18T13:20:27;13.20;;;12.48;;
15281;SDS011;7742;44.320;19.820;2022-08-18T13:36:41;13.20;;;12.50;;
15281;SDS011;7742;44.320;19.820;2022-08-18T13:42:38;13.50;;;12.80;;
15281;SDS011;7742;44.320;19.820;2022-08-18T19:06:16;15.07;;;14.27;;
15281;SDS011;7742;44.320;19.820;2022-08-18T19:09:07;15.20;;;14.30;;
15281;SDS011;7742;44.320;19.820;2022-08-18T19:12:02;16.10;;;15.20;;
15281;SDS011;7742;44.320;19.820;2022-08-18T19:15:13;15.20;;;13.93;;
15281;SDS011;7742;44.320;19.820;2022-08-18T19:18:13;15.50;;;14.27;;
15281;SDS011;7742;44.320;19.820;2022-08-18T19:20:51;15.00;;;14.20;;
15281;SDS011;7742;44.320;19.820;2022-08-18T19:23:23;15.60;;;14.57;;
15281;SDS011;7742;44.320;19.820;2022-08-18T19:25:58;14.47;;;13.57;;
15281;SDS011;7742;44.320;19.820;2022-08-18T19:28:45;15.17;;;14.27;;
15281;SDS011;7742;44.320;19.820;2022-08-18T19:31:16;12.77;;;12.03;;
15281;SDS011;7742;44.320;19.820;2022-08-18T19:33:54;13.73;;;12.93;;
15281;SDS011;7742;44.320;19.820;2022-08-18T19:36:27;15.73;;;14.73;;
15281;SDS011;7742;44.320;19.820;2022-08-18T19:39:05;15.40;;;14.40;;
15281;SDS011;7742;44.320;19.820;2022-08-18T19:41:39;15.37;;;14.37;;
15281;SDS011;7742;44.320;19.820;2022-08-18T19:44:23;15.70;;;14.47;;
15281;SDS011;7742;44.320;19.820;2022-08-18T19:46:56;15.50;;;14.40;;
15281;SDS011;7742;44.320;19.820;2022-08-18T19:49:33;15.23;;;14.37;;
15281;SDS011;7742;44.320;19.820;2022-08-18T19:52:24;14.47;;;13.53;;
15281;SDS011;7742;44.320;19.820;2022-08-18T19:55:02;16.10;;;15.00;;
15281;SDS011;7742;44.320;19.820;2022-08-18T19:57:48;15.97;;;14.97;;
15281;SDS011;7742;44.320;19.820;2022-08-18T20:00:32;16.37;;;15.23;;
15281;SDS011;7742;44.320;19.820;2022-08-18T20:03:12;18.47;;;17.17;;
15281;SDS011;7742;44.320;19.820;2022-08-18T20:05:52;24.60;;;22.60;;
15281;SDS011;7742;44.320;19.820;2022-08-18T20:08:36;15.83;;;14.80;;
15281;SDS011;7742;44.320;19.820;2022-08-18T20:11:29;15.43;;;14.43;;
15281;SDS011;7742;44.320;19.820;2022-08-18T20:14:03;16.80;;;15.60;;
15281;SDS011;7742;44.320;19.820;2022-08-18T20:16:31;15.63;;;14.37;;
15281;SDS011;7742;44.320;19.820;2022-08-18T20:19:00;15.13;;;14.03;;
15281;SDS011;7742;44.320;19.820;2022-08-18T20:21:42;15.37;;;14.17;;
15281;SDS011;7742;44.320;19.820;2022-08-18T20:35:38;14.27;;;13.37;;
15281;SDS011;7742;44.320;19.820;2022-08-18T20:38:11;14.20;;;13.50;;
15281;SDS011;7742;44.320;19.820;2022-08-18T20:40:42;16.77;;;15.67;;
15281;SDS011;7742;44.320;19.820;2022-08-18T20:43:30;13.77;;;12.93;;
15281;SDS011;7742;44.320;19.820;2022-08-18T20:46:12;14.43;;;13.33;;
15281;SDS011;7742;44.320;19.820;2022-08-18T20:48:53;13.80;;;12.73;;
15281;SDS011;7742;44.320;19.820;2022-08-18T20:51:31;14.00;;;13.20;;
15281;SDS011;7742;44.320;19.820;2022-08-18T20:54:39;14.07;;;13.27;;
15281;SDS011;7742;44.320;19.820;2022-08-18T20:57:26;14.47;;;13.47;;
15281;SDS011;7742;44.320;19.820;2022-08-18T21:00:20;14.60;;;13.70;;
15281;SDS011;7742;44.320;19.820;2022-08-18T21:05:59;15.20;;;14.40;;
15281;SDS011;7742;44.320;19.820;2022-08-18T21:08:27;15.17;;;14.27;;
15281;SDS011;7742;44.320;19.820;2022-08-18T21:10:57;15.73;;;14.93;;
15281;SDS011;7742;44.320;19.820;2022-08-18T21:13:29;15.63;;;14.70;;
15281;SDS011;7742;44.320;19.820;2022-08-18T21:16:04;14.93;;;14.00;;
15281;SDS011;7742;44.320;19.820;2022-08-18T21:18:31;14.70;;;13.83;;
15281;SDS011;7742;44.320;19.820;2022-08-18T21:21:23;15.23;;;14.27;;
15281;SDS011;7742;44.320;19.820;2022-08-18T21:24:20;14.90;;;13.90;;
15281;SDS011;7742;44.320;19.820;2022-08-18T21:26:53;14.03;;;13.23;;
15281;SDS011;7742;44.320;19.820;2022-08-18T21:29:22;15.17;;;14.13;;
15281;SDS011;7742;44.320;19.820;2022-08-18T21:31:51;15.20;;;14.30;;
15281;SDS011;7742;44.320;19.820;2022-08-18T21:34:28;15.17;;;14.27;;
15281;SDS011;7742;44.320;19.820;2022-08-18T21:37:01;14.90;;;13.93;;
15281;SDS011;7742;44.320;19.820;2022-08-18T21:40:03;13.93;;;13.23;;
15281;SDS011;7742;44.320;19.820;2022-08-18T21:42:38;15.60;;;14.43;;
15281;SDS011;7742;44.320;19.820;2022-08-18T21:45:12;14.53;;;13.60;;
15281;SDS011;7742;44.320;19.820;2022-08-18T21:47:46;14.90;;;14.00;;
15281;SDS011;7742;44.320;19.820;2022-08-18T21:50:16;14.37;;;13.57;;
15281;SDS011;7742;44.320;19.820;2022-08-18T21:52:48;15.47;;;14.37;;
15281;SDS011;7742;44.320;19.820;2022-08-18T21:55:19;15.40;;;14.40;;
15281;SDS011;7742;44.320;19.820;2022-08-18T21:57:57;15.23;;;14.37;;
15281;SDS011;7742;44.320;19.820;2022-08-18T22:00:28;15.60;;;14.60;;
15281;SDS011;7742;44.320;19.820;2022-08-18T22:05:47;15.13;;;14.17;;
15281;SDS011;7742;44.320;19.820;2022-08-18T22:08:24;15.20;;;14.20;;
15281;SDS011;7742;44.320;19.820;2022-08-18T22:11:07;14.67;;;13.80;;
15281;SDS011;7742;44.320;19.820;2022-08-18T22:14:10;14.73;;;14.00;;
15281;SDS011;7742;44.320;19.820;2022-08-18T22:16:40;15.33;;;14.33;;
15281;SDS011;7742;44.320;19.820;2022-08-18T22:19:11;14.73;;;14.03;;
15281;SDS011;7742;44.320;19.820;2022-08-18T22:21:55;15.57;;;14.40;;
15281;SDS011;7742;44.320;19.820;2022-08-18T22:24:27;15.40;;;14.43;;
15281;SDS011;7742;44.320;19.820;2022-08-18T22:27:03;14.63;;;13.73;;
15281;SDS011;7742;44.320;19.820;2022-08-18T22:29:35;14.40;;;13.50;;
15281;SDS011;7742;44.320;19.820;2022-08-18T22:32:05;15.07;;;14.20;;
15281;SDS011;7742;44.320;19.820;2022-08-18T22:34:34;14.97;;;13.97;;
15281;SDS011;7742;44.320;19.820;2022-08-18T22:37:03;15.03;;;14.10;;
15281;SDS011;7742;44.320;19.820;2022-08-18T22:39:40;15.27;;;14.27;;
15281;SDS011;7742;44.320;19.820;2022-08-18T22:42:10;15.83;;;14.83;;
15281;SDS011;7742;44.320;19.820;2022-08-18T22:44:38;15.33;;;14.30;;
15281;SDS011;7742;44.320;19.820;2022-08-18T22:47:06;15.63;;;14.60;;
15281;SDS011;7742;44.320;19.820;2022-08-18T22:49:36;15.03;;;14.23;;
15281;SDS011;7742;44.320;19.820;2022-08-18T22:52:04;15.00;;;14.10;;
15281;SDS011;7742;44.320;19.820;2022-08-18T22:54:34;14.33;;;13.60;;
15281;SDS011;7742;44.320;19.820;2022-08-18T22:57:02;14.37;;;13.57;;
15281;SDS011;7742;44.320;19.820;2022-08-18T22:59:29;14.70;;;13.90;;
15281;SDS011;7742;44.320;19.820;2022-08-18T23:01:57;14.47;;;13.57;;
15281;SDS011;7742;44.320;19.820;2022-08-18T23:04:26;14.40;;;13.63;;
15281;SDS011;7742;44.320;19.820;2022-08-18T23:07:31;14.30;;;13.40;;
15281;SDS011;7742;44.320;19.820;2022-08-18T23:10:16;14.57;;;13.67;;
15281;SDS011;7742;44.320;19.820;2022-08-18T23:12:44;14.13;;;13.43;;
15281;SDS011;7742;44.320;19.820;2022-08-18T23:15:13;14.43;;;13.53;;
15281;SDS011;7742;44.320;19.820;2022-08-18T23:18:14;14.33;;;13.47;;
15281;SDS011;7742;44.320;19.820;2022-08-18T23:20:54;14.53;;;13.70;;
15281;SDS011;7742;44.320;19.820;2022-08-18T23:23:23;14.43;;;13.77;;
15281;SDS011;7742;44.320;19.820;2022-08-18T23:26:04;14.60;;;13.80;;
15281;SDS011;7742;44.320;19.820;2022-08-18T23:28:33;14.40;;;13.60;;
15281;SDS011;7742;44.320;19.820;2022-08-18T23:31:00;14.23;;;13.37;;
15281;SDS011;7742;44.320;19.820;2022-08-18T23:33:28;13.90;;;13.07;;
15281;SDS011;7742;44.320;19.820;2022-08-18T23:35:57;15.20;;;13.67;;
15281;SDS011;7742;44.320;19.820;2022-08-18T23:38:25;14.10;;;13.27;;
15281;SDS011;7742;44.320;19.820;2022-08-18T23:40:54;14.53;;;13.73;;
15281;SDS011;7742;44.320;19.820;2022-08-18T23:43:22;14.97;;;14.00;;
15281;SDS011;7742;44.320;19.820;2022-08-18T23:45:49;14.97;;;13.97;;
15281;SDS011;7742;44.320;19.820;2022-08-18T23:48:17;13.83;;;13.13;;
15281;SDS011;7742;44.320;19.820;2022-08-18T23:50:45;14.70;;;13.80;;
15281;SDS011;7742;44.320;19.820;2022-08-18T23:53:15;14.90;;;13.93;;
15281;SDS011;7742;44.320;19.820;2022-08-18T23:55:44;14.47;;;13.57;;
15281;SDS011;7742;44.320;19.820;2022-08-18T23:58:11;14.90;;;13.90;;
